Time;durP1;ratioP1;P1;durP2;ratioP2;P2;SDS_P1;SDS_P2;PMS_P1;PMS_P2;Temp;Humidity;BMP_temperature;BMP_pressure;BME280_temperature;BME280_humidity;BME280_pressure;Samples;Min_cycle;Max_cycle;Signal;HPM_P1;HPM_P2
2021/04/11 00:01:44;;;;;;;;;;;9.80;99.90;;;;;;5035436;28;19909;-83
2021/04/11 00:04:10;;;;;;;;;;;9.80;99.90;;;;;;5035267;28;19905;-82
2021/04/11 00:06:35;;;;;;;;;;;9.80;99.90;;;;;;5035616;28;19944;-82
2021/04/11 00:09:01;;;;;;;;;;;9.90;99.90;;;;;;5034763;28;19908;-83
2021/04/11 00:11:26;;;;;;;;;;;9.80;99.90;;;;;;5035415;28;19916;-84
2021/04/11 00:13:53;;;;;;;;;;;9.90;99.90;;;;;;5053446;28;19916;-83
2021/04/11 00:16:19;;;;;;;;;;;9.90;99.90;;;;;;5053476;28;19912;-82
2021/04/11 00:18:44;;;;;;;;;;;9.90;99.90;;;;;;5035479;28;20508;-84
2021/04/11 00:21:10;;;;;;;;;;;9.90;99.90;;;;;;5034820;28;19904;-82
2021/04/11 00:23:35;;;;;;;;;;;9.90;99.90;;;;;;5053738;28;20343;-82
2021/04/11 00:26:01;;;;;;;;;;;9.80;99.90;;;;;;5035601;28;19904;-84
2021/04/11 00:28:27;;;;;;;;;;;9.80;99.90;;;;;;5036305;28;19909;-83
2021/04/11 00:30:52;;;;;;;;;;;9.80;99.90;;;;;;5054086;28;19983;-83
2021/04/11 00:33:21;;;;;;;;;;;9.90;99.90;;;;;;5035397;28;19905;-82
2021/04/11 00:35:51;;;;;;;;;;;9.90;99.90;;;;;;5052939;28;19912;-83
2021/04/11 00:38:17;;;;;;;;;;;9.90;99.90;;;;;;5053412;28;20397;-83
2021/04/11 00:40:42;;;;;;;;;;;9.80;99.90;;;;;;5038306;28;19970;-82
2021/04/11 00:43:12;;;;;;;;;;;9.90;99.90;;;;;;5038243;28;19922;-83
2021/04/11 00:45:38;;;;;;;;;;;9.80;99.90;;;;;;5056199;28;20374;-83
2021/04/11 00:48:03;;;;;;;;;;;9.80;99.90;;;;;;5038327;28;19909;-83
2021/04/11 00:50:30;;;;;;;;;;;9.80;99.90;;;;;;5037921;28;20357;-83
2021/04/11 00:52:56;;;;;;;;;;;9.90;99.90;;;;;;5056364;28;19993;-83
2021/04/11 00:55:23;;;;;;;;;;;9.80;99.90;;;;;;5038563;28;19958;-83
2021/04/11 00:57:49;;;;;;;;;;;9.80;99.90;;;;;;5038508;28;19905;-83
2021/04/11 01:00:14;;;;;;;;;;;9.80;99.90;;;;;;5055680;28;19905;-82
2021/04/11 01:02:40;;;;;;;;;;;9.80;99.90;;;;;;5037994;28;19950;-83
2021/04/11 01:05:18;;;;;;;;;;;9.80;99.90;;;;;;5056360;28;20224;-83
2021/04/11 01:07:47;;;;;;;;;;;9.80;99.90;;;;;;5056155;28;19904;-83
2021/04/11 01:10:15;;;;;;;;;;;9.90;99.90;;;;;;5055202;28;19919;-82
2021/04/11 01:12:41;;;;;;;;;;;9.90;99.90;;;;;;5037918;28;19904;-83
2021/04/11 01:15:13;;;;;;;;;;;9.80;99.90;;;;;;5037924;28;19912;-83
2021/04/11 01:17:39;;;;;;;;;;;9.90;99.90;;;;;;5055767;28;19904;-83
2021/04/11 01:20:06;;;;;;;;;;;9.90;99.90;;;;;;5037501;28;19931;-83
2021/04/11 01:22:34;;;;;;;;;;;9.90;99.90;;;;;;5055629;28;19912;-84
2021/04/11 01:25:04;;;;;;;;;;;9.90;99.90;;;;;;5037947;28;20003;-83
2021/04/11 01:27:32;;;;;;;;;;;9.90;99.90;;;;;;5037590;28;19966;-83
2021/04/11 01:29:58;;;;;;;;;;;9.90;99.90;;;;;;5055339;28;20003;-82
2021/04/11 01:32:24;;;;;;;;;;;9.90;99.90;;;;;;5037038;28;20020;-82
2021/04/11 01:34:52;;;;;;;;;;;9.90;99.90;;;;;;5037686;28;19968;-83
2021/04/11 01:37:20;;;;;;;;;;;9.90;99.90;;;;;;5055663;28;19912;-82
2021/04/11 01:39:46;;;;;;;;;;;9.90;99.90;;;;;;5037093;28;19995;-83
2021/04/11 01:42:12;;;;;;;;;;;9.90;99.90;;;;;;5055438;28;19944;-83
2021/04/11 01:44:39;;;;;;;;;;;9.80;99.90;;;;;;5059181;28;19966;-83
2021/04/11 01:47:06;;;;;;;;;;;9.80;99.90;;;;;;5063244;28;19904;-82
2021/04/11 01:49:31;;;;;;;;;;;9.40;99.90;;;;;;5061243;28;19954;-82
2021/04/11 01:52:07;;;;;;;;;;;9.00;99.90;;;;;;5044207;28;19905;-82
2021/04/11 01:54:34;;;;;;;;;;;8.70;99.90;;;;;;5043896;28;20321;-83
2021/04/11 01:57:15;;;;;;;;;;;8.50;99.90;;;;;;5062026;28;20002;-82
2021/04/11 01:59:41;;;;;;;;;;;8.40;99.90;;;;;;5059294;28;20284;-82
2021/04/11 02:02:07;;;;;;;;;;;8.30;99.90;;;;;;5043714;28;20011;-82
2021/04/11 02:04:32;;;;;;;;;;;8.20;99.90;;;;;;5042610;28;19908;-83
2021/04/11 02:07:00;;;;;;;;;;;8.10;99.90;;;;;;5043236;28;20250;-82
2021/04/11 02:09:27;;;;;;;;;;;8.10;99.90;;;;;;5042776;28;19916;-82
2021/04/11 02:11:54;;;;;;;;;;;8.00;99.70;;;;;;5042686;28;19908;-82
2021/04/11 02:14:20;;;;;;;;;;;8.00;99.90;;;;;;5042659;28;19904;-82
2021/04/11 02:16:46;;;;;;;;;;;8.00;99.90;;;;;;5042967;28;19905;-82
2021/04/11 02:19:13;;;;;;;;;;;7.90;99.90;;;;;;5041833;28;19911;-82
2021/04/11 02:21:39;;;;;;;;;;;7.90;99.90;;;;;;5042260;28;19904;-82
2021/04/11 02:24:06;;;;;;;;;;;8.00;99.90;;;;;;5042681;28;19911;-83
2021/04/11 02:26:33;;;;;;;;;;;7.80;99.70;;;;;;5059038;28;19987;-82
2021/04/11 02:28:59;;;;;;;;;;;7.80;99.90;;;;;;5041407;28;19905;-83
2021/04/11 02:31:25;;;;;;;;;;;7.70;99.90;;;;;;5060366;28;19949;-82
2021/04/11 02:33:50;;;;;;;;;;;7.70;99.90;;;;;;5061208;28;19905;-82
2021/04/11 02:36:16;;;;;;;;;;;7.50;99.90;;;;;;5041563;28;19965;-82
2021/04/11 02:38:43;;;;;;;;;;;7.50;99.90;;;;;;5042624;28;19905;-82
2021/04/11 02:41:08;;;;;;;;;;;7.40;99.90;;;;;;5041799;28;19905;-82
2021/04/11 02:43:34;;;;;;;;;;;7.30;99.90;;;;;;5042467;28;19919;-82
2021/04/11 02:45:59;;;;;;;;;;;7.20;99.90;;;;;;5043365;28;19955;-82
2021/04/11 02:48:25;;;;;;;;;;;7.30;99.90;;;;;;5061529;28;19963;-82
2021/04/11 02:50:51;;;;;;;;;;;7.20;99.90;;;;;;5058657;28;19944;-82
2021/04/11 02:53:19;;;;;;;;;;;7.10;99.90;;;;;;5060522;28;19920;-82
2021/04/11 02:55:45;;;;;;;;;;;7.00;99.90;;;;;;5060754;28;20285;-82
2021/04/11 02:58:11;;;;;;;;;;;7.10;99.90;;;;;;5060788;28;19904;-83
2021/04/11 03:00:38;;;;;;;;;;;7.00;99.90;;;;;;5041166;28;19915;-82
2021/04/11 03:03:04;;;;;;;;;;;7.00;99.90;;;;;;5043004;28;19927;-82
2021/04/11 03:05:30;;;;;;;;;;;6.80;99.50;;;;;;5043501;28;19905;-82
2021/04/11 03:08:02;;;;;;;;;;;6.80;99.70;;;;;;5042477;28;19912;-82
2021/04/11 03:10:31;;;;;;;;;;;6.70;99.90;;;;;;5041832;28;19909;-82
2021/04/11 03:12:58;;;;;;;;;;;6.70;99.70;;;;;;5043021;28;19905;-82
2021/04/11 03:15:24;;;;;;;;;;;6.70;99.60;;;;;;5043031;28;20041;-82
2021/04/11 03:17:51;;;;;;;;;;;6.60;99.40;;;;;;5042642;28;19950;-83
2021/04/11 03:20:19;;;;;;;;;;;6.50;99.90;;;;;;5041600;28;20440;-82
2021/04/11 03:22:44;;;;;;;;;;;6.40;99.90;;;;;;5061312;28;19905;-82
2021/04/11 03:25:12;;;;;;;;;;;6.40;99.90;;;;;;5042363;28;19904;-82
2021/04/11 03:28:00;;;;;;;;;;;6.40;99.90;;;;;;5061124;28;19931;-82
2021/04/11 03:30:51;;;;;;;;;;;6.40;99.90;;;;;;5036848;28;20277;-82
2021/04/11 03:33:18;;;;;;;;;;;6.50;99.90;;;;;;5042925;28;19912;-82
2021/04/11 03:35:45;;;;;;;;;;;6.50;99.90;;;;;;5042822;28;19946;-82
2021/04/11 03:38:12;;;;;;;;;;;6.50;99.90;;;;;;5062532;28;19976;-83
2021/04/11 03:40:38;;;;;;;;;;;6.60;99.90;;;;;;5042741;28;19905;-82
2021/04/11 03:43:10;;;;;;;;;;;6.60;99.90;;;;;;5060358;28;20386;-82
2021/04/11 03:45:36;;;;;;;;;;;6.60;99.70;;;;;;5061117;28;19909;-82
2021/04/11 03:48:11;;;;;;;;;;;6.60;99.90;;;;;;5043853;28;19904;-83
2021/04/11 03:50:43;;;;;;;;;;;6.40;99.30;;;;;;5043333;28;19954;-82
2021/04/11 03:53:13;;;;;;;;;;;6.50;99.60;;;;;;5061183;28;20264;-82
2021/04/11 03:55:40;;;;;;;;;;;6.40;99.10;;;;;;5042160;28;19904;-82
2021/04/11 03:58:17;;;;;;;;;;;6.30;99.30;;;;;;5061062;28;19905;-82
2021/04/11 04:00:56;;;;;;;;;;;6.40;98.80;;;;;;5057717;28;19943;-82
2021/04/11 04:03:23;;;;;;;;;;;6.40;99.10;;;;;;5061370;28;20065;-82
2021/04/11 04:05:50;;;;;;;;;;;6.30;98.80;;;;;;5060169;28;19911;-83
2021/04/11 04:08:15;;;;;;;;;;;6.30;99.20;;;;;;5059815;28;19905;-83
2021/04/11 04:10:47;;;;;;;;;;;6.40;99.30;;;;;;5041927;28;20000;-82
2021/04/11 04:13:28;;;;;;;;;;;6.50;99.40;;;;;;5046417;28;19958;-82
2021/04/11 04:15:57;;;;;;;;;;;6.40;98.50;;;;;;5047136;28;19958;-82
2021/04/11 04:18:31;;;;;;;;;;;6.30;97.90;;;;;;5045179;28;19916;-82
2021/04/11 04:20:57;;;;;;;;;;;6.20;98.30;;;;;;5041104;28;19905;-82
2021/04/11 04:23:31;;;;;;;;;;;6.10;98.40;;;;;;5049315;28;19943;-82
2021/04/11 04:25:57;;;;;;;;;;;6.10;98.60;;;;;;5049564;28;20378;-82
2021/04/11 04:28:25;;;;;;;;;;;6.10;99.20;;;;;;5067066;28;19983;-82
2021/04/11 04:30:50;;;;;;;;;;;6.10;98.80;;;;;;5067105;28;19944;-82
2021/04/11 04:33:29;;;;;;;;;;;6.00;98.30;;;;;;5049842;28;19905;-83
2021/04/11 04:35:59;;;;;;;;;;;6.00;98.60;;;;;;5068266;28;19905;-82
2021/04/11 04:38:32;;;;;;;;;;;5.80;98.30;;;;;;5051446;28;19972;-82
2021/04/11 04:41:01;;;;;;;;;;;5.80;98.60;;;;;;5051046;28;19908;-82
2021/04/11 04:43:45;;;;;;;;;;;5.80;98.60;;;;;;5051527;28;19912;-83
2021/04/11 04:46:17;;;;;;;;;;;5.70;98.60;;;;;;5051771;28;19905;-82
2021/04/11 04:48:50;;;;;;;;;;;5.80;98.80;;;;;;5051819;28;19976;-83
2021/04/11 04:51:20;;;;;;;;;;;5.90;98.70;;;;;;5050551;28;19983;-83
2021/04/11 04:53:52;;;;;;;;;;;6.00;98.20;;;;;;5051840;28;19904;-83
2021/04/11 04:56:23;;;;;;;;;;;5.80;98.50;;;;;;5070250;28;19904;-83
2021/04/11 04:58:52;;;;;;;;;;;5.80;98.20;;;;;;5048308;28;20388;-83
2021/04/11 05:01:30;;;;;;;;;;;5.60;98.80;;;;;;5065253;28;20381;-82
2021/04/11 05:03:59;;;;;;;;;;;5.50;99.10;;;;;;5066487;28;19905;-82
2021/04/11 05:06:27;;;;;;;;;;;5.40;99.00;;;;;;5047494;28;19928;-82
2021/04/11 05:09:06;;;;;;;;;;;5.30;98.90;;;;;;5047137;28;19912;-82
2021/04/11 05:11:34;;;;;;;;;;;5.40;98.80;;;;;;5047747;28;20400;-82
2021/04/11 05:14:03;;;;;;;;;;;5.30;98.90;;;;;;5047728;28;19912;-83
2021/04/11 05:16:33;;;;;;;;;;;5.40;99.00;;;;;;5047537;28;19904;-83
2021/04/11 05:19:03;;;;;;;;;;;5.30;99.00;;;;;;5065822;28;19927;-82
2021/04/11 05:21:31;;;;;;;;;;;5.30;98.80;;;;;;5048112;28;19959;-82
2021/04/11 05:24:17;;;;;;;;;;;5.40;98.80;;;;;;5063899;28;19904;-82
2021/04/11 05:26:45;;;;;;;;;;;5.50;98.50;;;;;;5045171;28;19916;-83
2021/04/11 05:29:37;;;;;;;;;;;5.50;98.60;;;;;;5064944;28;19908;-82
2021/04/11 05:32:03;;;;;;;;;;;5.50;98.10;;;;;;5032297;28;19908;-83
2021/04/11 05:34:29;;;;;;;;;;;5.30;98.60;;;;;;5048333;28;19926;-83
2021/04/11 05:37:10;;;;;;;;;;;5.30;99.10;;;;;;5048006;28;19972;-82
2021/04/11 05:39:35;;;;;;;;;;;5.10;98.90;;;;;;5063857;28;19923;-83
2021/04/11 05:42:20;;;;;;;;;;;5.10;99.50;;;;;;5047305;28;20348;-82
2021/04/11 05:44:55;;;;;;;;;;;5.10;99.30;;;;;;5046842;28;19970;-83
2021/04/11 05:47:32;;;;;;;;;;;5.20;99.30;;;;;;5066086;28;19962;-82
2021/04/11 05:50:03;;;;;;;;;;;5.20;99.20;;;;;;5047353;28;19949;-82
2021/04/11 05:52:32;;;;;;;;;;;5.20;99.20;;;;;;5048399;28;19932;-83
2021/04/11 05:54:58;;;;;;;;;;;5.20;99.40;;;;;;5067223;28;20000;-82
2021/04/11 05:57:26;;;;;;;;;;;5.20;99.30;;;;;;5048336;28;19924;-82
2021/04/11 05:59:56;;;;;;;;;;;5.30;99.50;;;;;;5048748;28;19905;-82
2021/04/11 06:02:39;;;;;;;;;;;5.30;99.30;;;;;;5049333;28;19904;-83
2021/04/11 06:05:09;;;;;;;;;;;5.30;99.30;;;;;;5065353;28;19912;-83
2021/04/11 06:07:43;;;;;;;;;;;5.20;98.90;;;;;;5048059;28;19944;-83
2021/04/11 06:10:11;;;;;;;;;;;5.20;99.60;;;;;;5047977;28;19968;-83
2021/04/11 06:12:40;;;;;;;;;;;5.10;99.40;;;;;;5048890;28;20309;-83
2021/04/11 06:15:15;;;;;;;;;;;5.10;99.40;;;;;;5064178;28;19992;-83
2021/04/11 06:17:42;;;;;;;;;;;5.10;99.70;;;;;;5064373;28;19913;-83
2021/04/11 06:20:08;;;;;;;;;;;5.10;99.50;;;;;;5049325;28;19905;-83
2021/04/11 06:22:52;;;;;;;;;;;5.10;99.80;;;;;;5075553;28;19916;-82
2021/04/11 06:25:36;;;;;;;;;;;5.10;99.70;;;;;;5057993;28;20355;-83
2021/04/11 06:28:09;;;;;;;;;;;5.20;99.70;;;;;;5056361;28;19889;-82
2021/04/11 06:30:37;;;;;;;;;;;5.30;99.40;;;;;;5070534;28;19909;-83
2021/04/11 06:33:12;;;;;;;;;;;5.30;99.20;;;;;;5044367;28;19959;-84
2021/04/11 06:35:43;;;;;;;;;;;5.40;98.90;;;;;;5063013;28;19905;-83
2021/04/11 06:38:11;;;;;;;;;;;5.40;99.20;;;;;;5047115;28;20380;-83
2021/04/11 06:40:48;;;;;;;;;;;5.50;98.90;;;;;;5062757;28;19947;-83
2021/04/11 06:43:32;;;;;;;;;;;5.50;98.80;;;;;;5065532;28;19913;-83
2021/04/11 06:46:05;;;;;;;;;;;5.60;98.90;;;;;;5063676;28;19927;-83
2021/04/11 06:48:41;;;;;;;;;;;5.40;98.70;;;;;;5067083;28;19905;-83
2021/04/11 06:51:22;;;;;;;;;;;5.40;99.10;;;;;;5054932;28;19904;-83
2021/04/11 06:53:48;;;;;;;;;;;5.30;99.30;;;;;;5056115;28;19926;-82
2021/04/11 06:56:20;;;;;;;;;;;5.10;99.40;;;;;;5150783;27;19975;-83
2021/04/11 06:58:45;;;;;;;;;;;5.20;99.60;;;;;;5148563;27;19911;-84
2021/04/11 07:01:49;;;;;;;;;;;5.20;99.10;;;;;;5145074;27;19935;-83
2021/04/11 07:04:35;;;;;;;;;;;5.10;99.30;;;;;;5113827;28;19909;-83
2021/04/11 07:07:01;;;;;;;;;;;5.20;99.50;;;;;;5115086;28;19915;-84
2021/04/11 07:09:29;;;;;;;;;;;5.10;99.20;;;;;;5128683;27;20296;-83
2021/04/11 07:11:57;;;;;;;;;;;5.20;99.40;;;;;;5137082;27;19943;-83
2021/04/11 07:14:26;;;;;;;;;;;5.10;99.50;;;;;;5136487;27;19991;-84
2021/04/11 07:17:01;;;;;;;;;;;5.10;99.20;;;;;;5134743;27;19914;-83
2021/04/11 07:19:39;;;;;;;;;;;5.20;99.20;;;;;;5136319;27;19908;-83
2021/04/11 07:22:07;;;;;;;;;;;5.20;99.40;;;;;;5134769;27;19915;-83
2021/04/11 07:24:47;;;;;;;;;;;5.10;99.10;;;;;;5135917;27;20014;-83
2021/04/11 07:27:23;;;;;;;;;;;5.20;99.10;;;;;;5136393;27;19911;-83
2021/04/11 07:30:08;;;;;;;;;;;5.20;99.40;;;;;;5134484;27;19911;-84
2021/04/11 07:32:52;;;;;;;;;;;5.40;98.90;;;;;;5135050;27;19908;-83
2021/04/11 07:35:22;;;;;;;;;;;5.30;99.40;;;;;;5135278;28;19911;-84
2021/04/11 07:38:03;;;;;;;;;;;5.40;98.90;;;;;;5135779;27;19907;-83
2021/04/11 07:40:44;;;;;;;;;;;5.30;98.80;;;;;;5134264;28;20427;-84
2021/04/11 07:43:28;;;;;;;;;;;5.30;98.70;;;;;;5133940;28;19912;-83
2021/04/11 07:46:20;;;;;;;;;;;5.30;98.80;;;;;;5095896;22;19971;-86
2021/04/11 07:48:52;;;;;;;;;;;5.30;98.60;;;;;;5070565;28;19919;-85
2021/04/11 07:51:20;;;;;;;;;;;5.50;98.30;;;;;;5070529;28;19970;-86
2021/04/11 07:53:49;;;;;;;;;;;5.40;98.30;;;;;;5068916;28;19909;-85
2021/04/11 07:56:14;;;;;;;;;;;5.50;98.20;;;;;;5069644;28;19917;-86
2021/04/11 07:58:43;;;;;;;;;;;5.50;97.90;;;;;;5068622;28;19962;-85
2021/04/11 08:01:20;;;;;;;;;;;5.50;98.00;;;;;;5070612;28;19912;-86
2021/04/11 08:03:52;;;;;;;;;;;5.50;97.70;;;;;;5070592;28;20399;-86
2021/04/11 08:06:36;;;;;;;;;;;5.50;97.90;;;;;;5065969;28;19954;-86
2021/04/11 08:09:11;;;;;;;;;;;5.40;98.30;;;;;;5057084;28;20346;-85
2021/04/11 08:11:45;;;;;;;;;;;5.40;98.10;;;;;;5056950;28;19951;-85
2021/04/11 08:14:20;;;;;;;;;;;5.40;98.50;;;;;;5058414;28;20008;-85
2021/04/11 08:17:04;;;;;;;;;;;5.40;98.50;;;;;;5059754;28;19956;-85
2021/04/11 08:19:49;;;;;;;;;;;5.40;98.30;;;;;;5058977;28;20373;-86
2021/04/11 08:22:23;;;;;;;;;;;5.40;98.50;;;;;;5058041;28;19927;-85
2021/04/11 08:25:07;;;;;;;;;;;5.30;98.80;;;;;;5059417;28;20020;-85
2021/04/11 08:27:59;;;;;;;;;;;5.20;98.90;;;;;;5058127;28;20214;-86
2021/04/11 08:30:43;;;;;;;;;;;5.10;98.50;;;;;;5058402;28;19935;-86
2021/04/11 08:33:34;;;;;;;;;;;5.20;98.90;;;;;;5057367;28;20361;-87
2021/04/11 08:36:14;;;;;;;;;;;5.30;98.40;;;;;;5037652;28;19913;-86
2021/04/11 08:38:58;;;;;;;;;;;5.20;98.90;;;;;;5056496;28;19913;-88
2021/04/11 08:41:32;;;;;;;;;;;5.20;98.60;;;;;;5056786;28;19905;-85
2021/04/11 08:44:07;;;;;;;;;;;5.20;98.20;;;;;;5057175;28;19928;-86
2021/04/11 08:46:51;;;;;;;;;;;5.10;98.20;;;;;;5056422;28;19912;-86
2021/04/11 08:49:20;;;;;;;;;;;5.10;98.00;;;;;;5055933;28;19905;-85
2021/04/11 08:52:05;;;;;;;;;;;5.20;97.70;;;;;;5056476;28;19970;-86
2021/04/11 08:54:40;;;;;;;;;;;5.10;97.90;;;;;;5056412;28;19909;-85
2021/04/11 08:57:14;;;;;;;;;;;5.10;97.80;;;;;;5057349;28;19905;-85
2021/04/11 08:59:55;;;;;;;;;;;4.90;97.90;;;;;;5057751;28;19905;-86
2021/04/11 09:02:39;;;;;;;;;;;5.00;99.10;;;;;;5057468;28;19948;-86
2021/04/11 09:05:20;;;;;;;;;;;5.10;98.40;;;;;;5057305;28;19905;-86
2021/04/11 09:07:58;;;;;;;;;;;5.20;99.10;;;;;;5057734;28;19905;-85
2021/04/11 09:10:43;;;;;;;;;;;5.40;99.00;;;;;;5057544;28;19911;-85
2021/04/11 09:13:09;;;;;;;;;;;5.40;98.20;;;;;;5056514;28;20292;-86
2021/04/11 09:15:54;;;;;;;;;;;5.40;97.80;;;;;;5056078;28;19909;-87
2021/04/11 09:18:19;;;;;;;;;;;5.40;98.10;;;;;;5056110;28;19906;-86
2021/04/11 09:21:04;;;;;;;;;;;5.40;97.70;;;;;;5057020;28;19963;-86
2021/04/11 09:23:37;;;;;;;;;;;5.50;97.80;;;;;;5055928;28;19967;-86
2021/04/11 09:26:10;;;;;;;;;;;5.50;98.30;;;;;;5055348;28;19905;-86
2021/04/11 09:28:36;;;;;;;;;;;5.50;97.80;;;;;;5055009;28;19904;-85
2021/04/11 09:31:29;;;;;;;;;;;5.40;97.40;;;;;;5054948;28;19950;-86
2021/04/11 09:34:20;;;;;;;;;;;5.30;97.70;;;;;;5054391;28;20365;-86
2021/04/11 09:40:19;;;;;;;;;;;5.40;96.90;;;;;;5053031;28;19911;-86
2021/04/11 09:43:09;;;;;;;;;;;;;;;;;;;;;
2021/04/11 09:45:53;;;;;;;;;;;5.70;97.50;;;;;;5052961;28;20325;-86
2021/04/11 09:48:22;;;;;;;;;;;5.50;96.50;;;;;;5054601;28;19909;-86
2021/04/11 09:51:20;;;;;;;;;;;5.60;97.40;;;;;;5054809;28;19905;-86
2021/04/11 09:54:03;;;;;;;;;;;;;;;;;;;;;
2021/04/11 09:56:47;;;;;;;;;;;5.70;97.00;;;;;;5055743;28;19967;-88
2021/04/11 10:21:49;;;;;;;;;;;5.70;96.20;;;;;;5051266;28;19932;-86
2021/04/11 10:24:54;;;;;;;;;;;5.70;96.10;;;;;;5030880;28;19909;-86
2021/04/11 10:27:42;;;;;;;;;;;5.70;96.50;;;;;;5053115;28;20009;-86
2021/04/11 10:33:25;;;;;;;;;;;5.60;96.80;;;;;;5011872;28;19906;-87
2021/04/11 10:36:04;;;;;;;;;;;5.70;96.70;;;;;;5017757;28;19920;-87
2021/04/11 10:38:54;;;;;;;;;;;5.70;96.30;;;;;;5052144;28;19954;-87
2021/04/11 10:41:41;;;;;;;;;;;5.80;96.70;;;;;;5052358;28;19909;-87
2021/04/11 10:47:29;;;;;;;;;;;5.80;96.70;;;;;;5053511;28;19916;-86
2021/04/11 10:50:00;;;;;;;;;;;5.70;96.40;;;;;;5052512;28;19904;-86
2021/04/11 10:53:05;;;;;;;;;;;;;;;;;;;;;
2021/04/11 11:02:00;;;;;;;;;;;5.50;96.10;;;;;;5031549;28;19909;-86
2021/04/11 11:04:51;;;;;;;;;;;5.40;96.40;;;;;;5014790;28;19953;-86
2021/04/11 11:07:57;;;;;;;;;;;5.60;97.20;;;;;;5045106;28;19911;-87
2021/04/11 11:28:10;;;;;;;;;;;5.70;96.30;;;;;;770957;22;20349;-93
2021/04/11 11:30:49;;;;;;;;;;;5.80;96.70;;;;;;5013945;28;19917;-85
2021/04/11 11:33:21;;;;;;;;;;;5.90;96.00;;;;;;5016127;28;20380;-84
2021/04/11 11:35:53;;;;;;;;;;;5.90;95.90;;;;;;5016402;28;19913;-85
2021/04/11 11:38:29;;;;;;;;;;;5.90;95.70;;;;;;5016676;28;19912;-85
2021/04/11 11:44:29;;;;;;;;;;;5.80;96.20;;;;;;5014438;28;19912;-85
2021/04/11 11:47:14;;;;;;;;;;;5.90;96.30;;;;;;5016858;28;19951;-85
2021/04/11 11:49:43;;;;;;;;;;;5.90;95.50;;;;;;5018918;28;19909;-85
2021/04/11 11:52:14;;;;;;;;;;;5.90;95.50;;;;;;5018791;28;20465;-85
2021/04/11 11:54:45;;;;;;;;;;;5.90;94.80;;;;;;5018778;28;20278;-85
2021/04/11 11:57:20;;;;;;;;;;;5.80;94.60;;;;;;5019211;28;19905;-85
2021/04/11 11:59:45;;;;;;;;;;;5.90;95.20;;;;;;5018805;28;20354;-85
2021/04/11 12:02:25;;;;;;;;;;;6.00;94.90;;;;;;5019043;28;19994;-85
2021/04/11 12:04:50;;;;;;;;;;;5.90;94.50;;;;;;5019044;28;19905;-85
2021/04/11 12:07:25;;;;;;;;;;;5.90;94.80;;;;;;5020099;28;19999;-85
2021/04/11 12:10:00;;;;;;;;;;;5.90;94.20;;;;;;5020278;28;19912;-85
2021/04/11 12:12:28;;;;;;;;;;;5.80;93.10;;;;;;5018905;28;19905;-86
2021/04/11 12:15:02;;;;;;;;;;;6.00;94.60;;;;;;5017833;28;19908;-86
2021/04/11 12:17:33;;;;;;;;;;;6.10;94.40;;;;;;5019877;28;20320;-86
2021/04/11 12:20:14;;;;;;;;;;;6.10;94.00;;;;;;5019241;28;19905;-85
2021/04/11 12:22:39;;;;;;;;;;;6.00;92.80;;;;;;5017748;28;20258;-86
2021/04/11 12:25:11;;;;;;;;;;;6.10;94.10;;;;;;5017647;28;19932;-86
2021/04/11 12:27:39;;;;;;;;;;;6.10;93.40;;;;;;5017619;28;20343;-86
2021/04/11 12:30:07;;;;;;;;;;;6.10;93.10;;;;;;5034942;28;19948;-85
2021/04/11 12:32:35;;;;;;;;;;;6.10;93.60;;;;;;5018417;28;19905;-85
2021/04/11 12:35:04;;;;;;;;;;;6.20;93.00;;;;;;5018277;28;20016;-85
2021/04/11 12:37:39;;;;;;;;;;;6.10;93.30;;;;;;5018207;28;19955;-86
2021/04/11 12:40:13;;;;;;;;;;;6.20;93.00;;;;;;5034664;28;20366;-86
2021/04/11 12:42:49;;;;;;;;;;;6.20;92.80;;;;;;5017649;28;19915;-86
2021/04/11 12:45:28;;;;;;;;;;;6.10;93.00;;;;;;5034930;28;19912;-86
2021/04/11 12:48:04;;;;;;;;;;;6.20;94.10;;;;;;5035104;28;19927;-86
2021/04/11 12:50:34;;;;;;;;;;;6.20;93.60;;;;;;5016488;28;19988;-85
2021/04/11 12:53:02;;;;;;;;;;;6.30;94.00;;;;;;5016620;28;19909;-86
2021/04/11 12:55:30;;;;;;;;;;;6.40;94.00;;;;;;5034498;28;19915;-85
2021/04/11 12:58:02;;;;;;;;;;;6.40;93.50;;;;;;5016751;28;19909;-85
2021/04/11 13:00:37;;;;;;;;;;;6.40;93.00;;;;;;5016426;28;19905;-86
2021/04/11 13:03:15;;;;;;;;;;;6.40;93.30;;;;;;5034613;28;19912;-86
2021/04/11 13:05:46;;;;;;;;;;;6.40;93.70;;;;;;5016655;28;20000;-86
2021/04/11 13:08:15;;;;;;;;;;;6.30;92.20;;;;;;5016588;28;19905;-85
2021/04/11 13:10:56;;;;;;;;;;;6.20;92.40;;;;;;5016108;28;20380;-86
2021/04/11 13:13:21;;;;;;;;;;;6.20;92.90;;;;;;5016756;28;19908;-86
2021/04/11 13:15:52;;;;;;;;;;;6.20;92.90;;;;;;5016309;28;19909;-86
2021/04/11 13:18:37;;;;;;;;;;;6.20;94.00;;;;;;5017239;28;19905;-86
2021/04/11 13:21:20;;;;;;;;;;;6.20;93.80;;;;;;5033565;28;19905;-85
2021/04/11 13:23:48;;;;;;;;;;;6.20;93.60;;;;;;5016289;28;20384;-85
2021/04/11 13:26:33;;;;;;;;;;;6.20;94.10;;;;;;5016162;28;20408;-86
2021/04/11 13:29:11;;;;;;;;;;;6.30;94.00;;;;;;5015728;28;19913;-86
2021/04/11 13:31:48;;;;;;;;;;;6.30;94.10;;;;;;5016120;28;19909;-85
2021/04/11 13:34:26;;;;;;;;;;;6.40;94.50;;;;;;5033710;28;20405;-86
2021/04/11 13:36:55;;;;;;;;;;;6.40;93.10;;;;;;5034142;28;19955;-86
2021/04/11 13:39:20;;;;;;;;;;;6.40;93.00;;;;;;5033314;28;20274;-86
2021/04/11 13:42:09;;;;;;;;;;;6.40;92.80;;;;;;5034283;28;19931;-86
2021/04/11 13:44:34;;;;;;;;;;;6.50;93.60;;;;;;5034872;28;19905;-86
2021/04/11 13:47:02;;;;;;;;;;;6.60;93.40;;;;;;5038812;28;20007;-86
2021/04/11 13:49:36;;;;;;;;;;;6.60;93.30;;;;;;5019955;28;19910;-86
2021/04/11 13:52:07;;;;;;;;;;;6.60;93.10;;;;;;5020900;28;19905;-86
2021/04/11 13:54:36;;;;;;;;;;;6.60;92.90;;;;;;5038340;28;19916;-86
2021/04/11 13:57:20;;;;;;;;;;;6.70;93.50;;;;;;5020599;28;20346;-86
2021/04/11 13:59:52;;;;;;;;;;;6.70;93.10;;;;;;5020007;28;19905;-86
2021/04/11 14:02:33;;;;;;;;;;;6.70;93.00;;;;;;5020286;28;19905;-86
2021/04/11 14:05:05;;;;;;;;;;;6.60;92.40;;;;;;5018460;28;19912;-87
2021/04/11 14:07:51;;;;;;;;;;;6.60;92.50;;;;;;5020783;28;19968;-86
2021/04/11 14:10:25;;;;;;;;;;;6.40;92.50;;;;;;4941608;29;19931;-86
2021/04/11 14:12:53;;;;;;;;;;;6.30;93.10;;;;;;5011014;28;20532;-86
2021/04/11 14:15:29;;;;;;;;;;;6.30;93.00;;;;;;5017963;28;19913;-86
2021/04/11 14:18:06;;;;;;;;;;;6.30;93.10;;;;;;5037307;28;19905;-86
2021/04/11 14:20:43;;;;;;;;;;;6.40;93.70;;;;;;5035376;28;19955;-86
2021/04/11 14:23:15;;;;;;;;;;;6.50;93.10;;;;;;5017017;28;19919;-86
2021/04/11 14:25:42;;;;;;;;;;;6.50;92.80;;;;;;5016132;28;19905;-86
2021/04/11 14:28:14;;;;;;;;;;;6.40;92.40;;;;;;5033800;28;19905;-86
2021/04/11 14:30:52;;;;;;;;;;;6.50;91.90;;;;;;5033868;28;19921;-86
2021/04/11 14:33:22;;;;;;;;;;;6.50;91.90;;;;;;5034335;28;19905;-86
2021/04/11 14:36:19;;;;;;;;;;;6.60;92.30;;;;;;5034418;28;19944;-84
2021/04/11 14:38:49;;;;;;;;;;;6.60;91.80;;;;;;5015269;28;19905;-86
2021/04/11 14:41:18;;;;;;;;;;;6.40;92.00;;;;;;5017673;28;19905;-86
2021/04/11 14:43:49;;;;;;;;;;;6.40;92.30;;;;;;5016534;28;19999;-85
2021/04/11 14:46:25;;;;;;;;;;;6.40;92.50;;;;;;5016904;28;19912;-86
2021/04/11 14:48:51;;;;;;;;;;;6.30;90.80;;;;;;5016700;28;20004;-87
2021/04/11 14:51:21;;;;;;;;;;;6.30;90.50;;;;;;5016059;28;20338;-85
2021/04/11 14:53:55;;;;;;;;;;;6.40;90.30;;;;;;5034335;28;19912;-86
2021/04/11 14:56:40;;;;;;;;;;;6.30;90.70;;;;;;5016538;28;19909;-85
2021/04/11 14:59:15;;;;;;;;;;;6.30;90.90;;;;;;5016974;28;19916;-86
2021/04/11 15:01:48;;;;;;;;;;;6.40;91.00;;;;;;5018087;28;20350;-84
2021/04/11 15:04:17;;;;;;;;;;;6.40;90.30;;;;;;5019423;28;19905;-86
2021/04/11 15:06:45;;;;;;;;;;;6.40;91.30;;;;;;5050914;28;19905;-85
2021/04/11 15:09:14;;;;;;;;;;;6.50;91.10;;;;;;5036090;28;19912;-84
2021/04/11 15:11:44;;;;;;;;;;;6.50;91.70;;;;;;5024292;28;19915;-86
2021/04/11 15:14:29;;;;;;;;;;;6.50;91.30;;;;;;5016381;28;19916;-86
2021/04/11 15:17:13;;;;;;;;;;;6.40;91.50;;;;;;5017931;28;20312;-86
2021/04/11 15:19:42;;;;;;;;;;;6.50;91.60;;;;;;5019240;28;19936;-86
2021/04/11 15:25:21;;;;;;;;;;;6.40;91.90;;;;;;5037329;28;20012;-87
2021/04/11 15:27:49;;;;;;;;;;;6.50;91.70;;;;;;5019514;28;19909;-87
2021/04/11 15:30:17;;;;;;;;;;;6.50;92.00;;;;;;5018956;28;19938;-86
2021/04/11 15:32:46;;;;;;;;;;;6.50;91.70;;;;;;5037760;28;20413;-87
2021/04/11 15:35:26;;;;;;;;;;;6.50;91.80;;;;;;5020639;28;19909;-87
2021/04/11 15:38:03;;;;;;;;;;;6.50;92.00;;;;;;5020240;28;19905;-86
2021/04/11 15:40:34;;;;;;;;;;;6.60;91.70;;;;;;5036709;28;20361;-86
2021/04/11 15:43:13;;;;;;;;;;;6.50;91.50;;;;;;5019730;28;19909;-87
2021/04/11 15:45:38;;;;;;;;;;;6.50;92.00;;;;;;5037330;28;19950;-86
2021/04/11 15:48:22;;;;;;;;;;;6.60;91.90;;;;;;5037587;28;20350;-85
2021/04/11 15:50:52;;;;;;;;;;;6.60;92.00;;;;;;5019773;28;19950;-87
2021/04/11 15:53:30;;;;;;;;;;;6.70;92.30;;;;;;5020461;28;19912;-86
2021/04/11 15:56:02;;;;;;;;;;;6.70;91.70;;;;;;5037998;28;20004;-85
2021/04/11 15:58:32;;;;;;;;;;;6.80;92.10;;;;;;5020195;28;19912;-87
2021/04/11 16:01:00;;;;;;;;;;;6.80;91.80;;;;;;5018591;28;19940;-86
2021/04/11 16:03:31;;;;;;;;;;;6.80;90.80;;;;;;5019577;28;20318;-86
2021/04/11 16:06:00;;;;;;;;;;;6.80;90.80;;;;;;5020059;28;20286;-86
2021/04/11 16:08:28;;;;;;;;;;;6.80;88.90;;;;;;5019600;28;19952;-84
2021/04/11 16:11:13;;;;;;;;;;;6.90;89.10;;;;;;5018434;28;19905;-87